createdAt,value
2023-05-05T03:59:11.080Z,20.79
2023-05-05T04:00:11.030Z,20.68
2023-05-05T04:01:11.035Z,20.85
2023-05-05T04:02:11.033Z,20.72
2023-05-05T04:03:11.293Z,20.74
2023-05-05T04:04:11.021Z,20.79
2023-05-05T04:05:10.998Z,20.83
2023-05-05T04:06:11.004Z,20.85
2023-05-05T04:07:10.985Z,20.85
2023-05-05T04:08:10.984Z,20.81
2023-05-05T04:09:10.971Z,20.90
2023-05-05T04:10:11.020Z,20.90
2023-05-05T04:11:10.989Z,20.93
2023-05-05T04:12:10.959Z,20.96
2023-05-05T04:13:11.104Z,20.90
2023-05-05T04:14:10.954Z,20.88
2023-05-05T04:15:10.989Z,20.91
2023-05-05T04:16:11.001Z,21.03
2023-05-05T04:17:10.955Z,20.97
2023-05-05T04:18:11.004Z,21.06
2023-05-05T04:19:10.943Z,21.04
2023-05-05T04:20:11.072Z,21.04
2023-05-05T04:21:10.957Z,20.94
2023-05-05T04:22:10.926Z,21.08
2023-05-05T04:23:10.913Z,20.96
2023-05-05T04:24:10.898Z,21.04
2023-05-05T04:25:10.909Z,21.06
2023-05-05T04:26:10.900Z,21.04
2023-05-05T04:27:10.902Z,21.08
2023-05-05T04:28:10.894Z,21.13
2023-05-05T04:29:10.901Z,21.12
2023-05-05T04:30:10.901Z,21.23
2023-05-05T04:31:10.946Z,21.22
2023-05-05T04:32:10.893Z,21.19
2023-05-05T04:33:10.883Z,21.21
2023-05-05T04:34:10.869Z,21.22
2023-05-05T04:35:10.865Z,21.23
2023-05-05T04:36:10.857Z,21.27
2023-05-05T04:37:10.882Z,21.27
2023-05-05T04:38:10.854Z,21.23
2023-05-05T04:39:10.856Z,21.33
2023-05-05T04:40:10.853Z,21.30
2023-05-05T04:41:10.828Z,21.30
2023-05-05T04:42:10.864Z,21.34
2023-05-05T04:43:10.830Z,21.36
2023-05-05T04:44:10.852Z,21.36
2023-05-05T04:45:10.818Z,21.34
2023-05-05T04:46:10.879Z,21.43
2023-05-05T04:47:12.606Z,21.43
2023-05-05T04:48:10.835Z,21.49
2023-05-05T04:49:10.830Z,21.48
2023-05-05T04:50:10.943Z,21.45
2023-05-05T04:51:10.812Z,21.48
2023-05-05T04:52:10.798Z,21.56
2023-05-05T04:53:10.806Z,21.53
2023-05-05T04:54:10.794Z,21.53
2023-05-05T04:55:10.778Z,21.52
2023-05-05T04:56:10.787Z,21.53
2023-05-05T04:57:10.790Z,21.51
2023-05-05T04:58:10.796Z,21.68
2023-05-05T04:59:10.791Z,21.62
2023-05-05T05:00:10.934Z,21.61
2023-05-05T05:01:10.755Z,21.64
2023-05-05T05:02:10.827Z,21.74
2023-05-05T05:03:10.869Z,21.73
2023-05-05T05:04:10.766Z,21.76
2023-05-05T05:05:10.755Z,21.73
2023-05-05T05:06:10.744Z,21.73
2023-05-05T05:07:10.754Z,21.77
2023-05-05T05:08:10.749Z,21.68
2023-05-05T05:09:10.758Z,21.74
2023-05-05T05:10:10.956Z,21.82
2023-05-05T05:11:10.752Z,21.89
2023-05-05T05:12:10.731Z,21.86
2023-05-05T05:13:12.771Z,21.82
2023-05-05T05:14:10.736Z,21.85
2023-05-05T05:15:10.715Z,21.92
2023-05-05T05:16:10.756Z,21.93
2023-05-05T05:17:10.712Z,21.94
2023-05-05T05:18:10.729Z,21.97
2023-05-05T05:19:10.736Z,22.02
2023-05-05T05:20:10.924Z,22.07
2023-05-05T05:21:10.711Z,22.07
2023-05-05T05:22:10.688Z,22.15
2023-05-05T05:23:10.694Z,22.09
2023-05-05T05:24:10.708Z,22.11
2023-05-05T05:25:10.679Z,22.18
2023-05-05T05:26:10.677Z,22.26
2023-05-05T05:27:10.692Z,22.11
2023-05-05T05:28:11.145Z,22.23
2023-05-05T05:29:10.682Z,22.20
2023-05-05T05:30:10.722Z,22.30
2023-05-05T05:31:10.678Z,22.27
2023-05-05T05:32:10.700Z,22.26
2023-05-05T05:33:10.801Z,22.33
2023-05-05T05:34:12.699Z,22.33
2023-05-05T05:35:10.695Z,22.41
2023-05-05T05:36:10.650Z,22.38
2023-05-05T05:37:10.694Z,22.45
2023-05-05T05:38:10.641Z,22.45
2023-05-05T05:39:10.649Z,22.46
2023-05-05T05:40:10.713Z,22.51
2023-05-05T05:41:10.622Z,22.49
2023-05-05T05:42:10.645Z,22.46
2023-05-05T05:43:10.645Z,22.45
2023-05-05T05:44:10.656Z,22.46
2023-05-05T05:45:10.678Z,22.52
2023-05-05T05:46:10.704Z,22.59
2023-05-05T05:47:10.636Z,22.45
2023-05-05T05:48:10.830Z,22.60
2023-05-05T05:49:10.662Z,22.45
2023-05-05T05:50:10.760Z,22.49
2023-05-05T05:51:10.669Z,22.46
2023-05-05T05:52:10.647Z,22.46
2023-05-05T05:53:10.668Z,22.57
2023-05-05T05:54:10.601Z,22.54
2023-05-05T05:55:10.625Z,22.49
2023-05-05T05:56:10.794Z,22.46
2023-05-05T05:57:10.647Z,22.48
2023-05-05T05:58:10.667Z,22.44
2023-05-05T05:59:10.583Z,22.44
2023-05-05T06:00:10.727Z,22.41
2023-05-05T06:01:10.648Z,22.41
2023-05-05T06:02:10.684Z,22.48
2023-05-05T06:03:10.693Z,22.45
2023-05-05T06:04:10.700Z,22.48
2023-05-05T06:05:10.565Z,22.45
2023-05-05T06:06:10.600Z,22.42
2023-05-05T06:07:10.561Z,22.41
2023-05-05T06:08:10.557Z,22.44
2023-05-05T06:09:10.553Z,22.41
2023-05-05T06:10:25.723Z,22.38
2023-05-05T06:11:10.597Z,22.45
2023-05-05T06:12:10.554Z,22.38
2023-05-05T06:13:10.646Z,22.42
2023-05-05T06:14:10.536Z,22.42
2023-05-05T06:15:10.532Z,22.34
2023-05-05T06:16:10.580Z,22.36
2023-05-05T06:17:10.521Z,22.42
2023-05-05T06:18:10.613Z,22.39
2023-05-05T06:19:10.527Z,22.41
2023-05-05T06:20:10.535Z,22.39
2023-05-05T06:21:10.538Z,22.39
2023-05-05T06:22:10.527Z,22.34
2023-05-05T06:23:10.514Z,22.41
2023-05-05T06:24:10.501Z,22.42
2023-05-05T06:25:10.512Z,22.36
2023-05-05T06:26:10.494Z,22.34
2023-05-05T06:27:10.536Z,22.29
2023-05-05T06:28:10.517Z,22.39
2023-05-05T06:29:12.219Z,22.39
2023-05-05T06:30:10.753Z,22.38
2023-05-05T06:31:10.555Z,22.30
2023-05-05T06:32:10.477Z,22.33
2023-05-05T06:33:10.469Z,22.30
2023-05-05T06:34:10.471Z,22.27
2023-05-05T06:35:10.494Z,22.29
2023-05-05T06:36:10.524Z,22.26
2023-05-05T06:37:10.487Z,22.29
2023-05-05T06:39:43.022Z,22.24
2023-05-05T06:40:43.002Z,22.31
2023-05-05T06:41:42.992Z,22.30
2023-05-05T06:42:42.964Z,22.31
2023-05-05T06:43:42.969Z,22.26
2023-05-05T06:44:42.968Z,22.36
2023-05-05T06:45:43.873Z,22.27
2023-05-05T06:46:43.021Z,22.30
2023-05-05T06:47:42.987Z,22.26
2023-05-05T06:48:42.952Z,22.31
2023-05-05T06:49:42.941Z,22.27
2023-05-05T06:50:42.950Z,22.29
2023-05-05T06:51:43.122Z,22.26
2023-05-05T06:52:42.983Z,22.31
2023-05-05T06:53:42.940Z,22.31
2023-05-05T06:54:42.929Z,22.36
2023-05-05T06:55:43.043Z,22.24
2023-05-05T06:56:42.939Z,22.24
2023-05-05T06:57:42.915Z,22.22
2023-05-05T06:58:42.917Z,22.26
2023-05-05T06:59:42.911Z,22.30
2023-05-05T07:00:42.976Z,22.24
2023-05-05T07:01:42.905Z,22.29
2023-05-05T07:02:42.965Z,22.23
2023-05-05T07:03:42.991Z,22.30
2023-05-05T07:04:43.004Z,22.34
2023-05-05T07:05:42.920Z,22.34
2023-05-05T07:06:42.905Z,22.33
2023-05-05T07:07:42.885Z,22.38
2023-05-05T07:08:42.891Z,22.38
2023-05-05T07:09:42.895Z,22.38
2023-05-05T07:10:42.895Z,22.36
2023-05-05T07:11:42.974Z,22.39
2023-05-05T07:12:42.904Z,22.45
2023-05-05T07:13:42.868Z,22.44
2023-05-05T07:14:42.883Z,22.48
2023-05-05T07:15:42.876Z,22.46
2023-05-05T07:16:42.911Z,22.48
2023-05-05T07:17:42.919Z,22.54
2023-05-05T07:18:42.864Z,22.48
2023-05-05T07:19:42.854Z,22.59
2023-05-05T07:20:43.374Z,22.57
2023-05-05T07:21:42.848Z,22.61
2023-05-05T07:22:42.878Z,22.67
2023-05-05T07:23:43.065Z,22.70
2023-05-05T07:24:42.848Z,22.73
2023-05-05T07:25:42.845Z,22.79
2023-05-05T07:26:42.854Z,22.85
2023-05-05T07:27:43.020Z,22.85
2023-05-05T07:28:42.869Z,22.84
2023-05-05T07:29:42.854Z,22.88
2023-05-05T07:30:42.830Z,22.91
2023-05-05T07:31:42.977Z,22.92
2023-05-05T07:32:42.977Z,22.97
2023-05-05T07:33:42.926Z,22.89
2023-05-05T07:34:42.860Z,22.96
2023-05-05T07:35:42.966Z,22.97
2023-05-05T07:36:42.875Z,22.94
2023-05-05T07:37:42.826Z,23.04
2023-05-05T07:38:42.895Z,22.97
2023-05-05T07:39:42.899Z,23.03
2023-05-05T07:40:42.821Z,23.03
2023-05-05T07:41:42.958Z,23.04
2023-05-05T07:42:42.805Z,23.07
2023-05-05T07:43:44.486Z,23.06
2023-05-05T07:44:42.854Z,23.12
2023-05-05T07:45:42.911Z,23.07
2023-05-05T07:46:42.838Z,23.07
2023-05-05T07:47:42.834Z,23.07
2023-05-05T07:48:42.820Z,23.15
2023-05-05T07:49:42.797Z,23.15
2023-05-05T07:50:42.810Z,23.14
2023-05-05T07:51:43.949Z,23.16
2023-05-05T07:52:46.758Z,23.19
2023-05-05T07:53:42.776Z,23.26
2023-05-05T07:54:42.770Z,23.19
2023-05-05T07:55:42.809Z,23.19
2023-05-05T07:56:42.762Z,23.26
2023-05-05T07:57:43.002Z,23.25
2023-05-05T07:58:42.779Z,23.37
2023-05-05T07:59:42.894Z,23.37
2023-05-05T08:00:42.743Z,23.34
2023-05-05T08:01:42.798Z,23.40
2023-05-05T08:02:42.829Z,23.37
2023-05-05T08:03:42.886Z,23.37
2023-05-05T08:04:42.895Z,23.44
2023-05-05T08:05:42.780Z,23.44
2023-05-05T08:06:42.734Z,23.47
2023-05-05T08:07:42.727Z,23.48
2023-05-05T08:08:42.730Z,23.53
2023-05-05T08:09:42.738Z,23.59
2023-05-05T08:10:42.722Z,23.59
2023-05-05T08:11:42.733Z,23.62
2023-05-05T08:12:42.765Z,23.62
2023-05-05T08:13:42.784Z,23.57
2023-05-05T08:14:42.776Z,23.64
2023-05-05T08:15:42.892Z,23.72
2023-05-05T08:16:42.720Z,23.66
2023-05-05T08:17:42.769Z,23.72
2023-05-05T08:18:42.753Z,23.71
2023-05-05T08:19:42.804Z,23.74
2023-05-05T08:20:42.739Z,23.75
2023-05-05T08:21:42.719Z,23.72
2023-05-05T08:22:42.712Z,23.77
2023-05-05T08:23:42.734Z,23.77
2023-05-05T08:24:42.747Z,23.89
2023-05-05T08:25:42.709Z,23.81
2023-05-05T08:26:42.702Z,23.78
2023-05-05T08:27:42.693Z,23.93
2023-05-05T08:28:42.785Z,23.96
2023-05-05T08:29:42.713Z,23.87
2023-05-05T08:30:42.769Z,23.89
2023-05-05T08:31:42.933Z,23.99
2023-05-05T08:32:42.792Z,23.92
2023-05-05T08:33:42.703Z,24.00
2023-05-05T08:34:42.698Z,23.99
2023-05-05T08:35:42.710Z,24.11
2023-05-05T08:36:42.719Z,24.08
2023-05-05T08:37:42.688Z,24.09
2023-05-05T08:38:42.687Z,24.22
2023-05-05T08:39:42.697Z,24.24
2023-05-05T08:40:42.686Z,24.29
2023-05-05T08:41:42.817Z,24.33
2023-05-05T08:42:42.687Z,24.26
2023-05-05T08:43:42.664Z,24.32
2023-05-05T08:44:43.404Z,24.33
2023-05-05T08:45:42.673Z,24.36
2023-05-05T08:46:42.759Z,24.40
2023-05-05T08:47:42.811Z,24.45
2023-05-05T08:48:42.747Z,24.40
2023-05-05T08:49:42.715Z,24.44
2023-05-05T08:50:42.718Z,24.46
2023-05-05T08:51:42.733Z,24.51
2023-05-05T08:52:42.746Z,24.52
2023-05-05T08:53:42.660Z,24.61
2023-05-05T08:54:42.655Z,24.56
2023-05-05T08:55:42.665Z,24.58
2023-05-05T08:57:42.640Z,24.63
2023-05-05T08:58:42.698Z,24.66
2023-05-05T08:59:42.660Z,24.67
2023-05-05T09:01:42.655Z,24.75
2023-05-05T09:02:42.749Z,24.71
2023-05-05T09:03:43.633Z,24.77
2023-05-05T09:04:42.642Z,24.75
2023-05-05T09:05:42.709Z,24.85
2023-05-05T09:07:42.647Z,25.00
2023-05-05T09:08:42.637Z,24.94
2023-05-05T09:09:42.726Z,25.00
2023-05-05T09:10:42.741Z,25.01
2023-05-05T09:13:15.350Z,25.02
2023-05-05T09:14:15.291Z,25.11
2023-05-05T09:15:15.317Z,25.04
2023-05-05T09:16:15.327Z,25.07
2023-05-05T09:17:15.203Z,25.15
2023-05-05T09:18:15.224Z,25.09
2023-05-05T09:19:15.269Z,25.14
2023-05-05T09:20:15.233Z,25.14
2023-05-05T09:21:15.289Z,25.24
2023-05-05T09:22:15.236Z,25.32
2023-05-05T09:23:15.203Z,25.24
2023-05-05T09:24:15.483Z,25.32
2023-05-05T09:25:15.211Z,25.33
2023-05-05T09:26:15.983Z,25.37
2023-05-05T09:27:16.298Z,25.38
2023-05-05T09:28:15.898Z,25.32
2023-05-05T09:29:15.305Z,25.34
2023-05-05T09:30:15.224Z,25.47
2023-05-05T09:31:15.222Z,25.47
2023-05-05T09:32:15.373Z,25.54
2023-05-05T09:33:15.296Z,25.63
2023-05-05T09:34:15.225Z,25.60
2023-05-05T09:35:15.453Z,25.60
2023-05-05T09:36:15.274Z,25.67
2023-05-05T09:37:15.267Z,25.74
2023-05-05T09:38:15.230Z,25.76
2023-05-05T09:39:15.274Z,25.71
2023-05-05T09:40:15.613Z,25.76
2023-05-05T09:41:15.219Z,25.78
2023-05-05T09:42:15.196Z,25.86
2023-05-05T09:43:15.210Z,25.79
2023-05-05T09:44:15.986Z,25.84
2023-05-05T09:45:15.229Z,25.86
2023-05-05T09:46:15.293Z,25.86
2023-05-05T09:47:28.473Z,25.86
2023-05-05T09:48:15.391Z,25.88
2023-05-05T09:49:15.202Z,25.89
2023-05-05T09:50:15.246Z,25.94
2023-05-05T09:51:15.296Z,25.97
2023-05-05T09:52:15.176Z,26.01
2023-05-05T09:53:15.233Z,26.03
2023-05-05T09:54:15.259Z,25.99
2023-05-05T09:55:15.180Z,25.97
2023-05-05T09:56:15.222Z,26.06
2023-05-05T09:57:15.244Z,26.11
2023-05-05T09:58:15.275Z,26.07
2023-05-05T09:59:15.242Z,26.11
2023-05-05T10:00:15.224Z,26.16
2023-05-05T10:01:15.237Z,26.15
2023-05-05T10:02:15.322Z,26.11
2023-05-05T10:13:33.402Z,26.32
2023-05-05T10:14:33.546Z,26.39
2023-05-05T10:15:33.235Z,26.34
2023-05-05T10:16:33.356Z,26.42
2023-05-05T10:17:33.281Z,26.32
2023-05-05T10:19:33.276Z,26.41
2023-05-05T10:20:33.315Z,26.42
2023-05-05T10:21:33.239Z,26.41
2023-05-05T10:22:33.229Z,26.44
2023-05-05T10:24:33.235Z,26.49
2023-05-05T10:25:33.401Z,26.53
2023-05-05T10:26:33.237Z,26.59
2023-05-05T10:27:33.297Z,26.60
2023-05-05T10:28:33.295Z,26.63
2023-05-05T10:29:33.303Z,26.71
2023-05-05T10:30:35.778Z,26.78
2023-05-05T10:31:34.208Z,26.79
2023-05-05T10:33:33.401Z,26.93
2023-05-05T10:34:33.312Z,26.99
2023-05-05T10:35:33.249Z,26.94
2023-05-05T10:36:33.282Z,27.04
2023-05-05T10:37:33.246Z,27.01
2023-05-05T10:38:33.391Z,27.05
2023-05-05T10:39:33.254Z,27.06
2023-05-05T10:40:33.309Z,27.11
2023-05-05T10:41:33.245Z,27.21
2023-05-05T10:42:33.236Z,27.26
2023-05-05T10:43:33.251Z,27.27
2023-05-05T10:44:33.237Z,27.34
2023-05-05T10:45:33.461Z,27.30
2023-05-05T10:46:33.370Z,27.46
2023-05-05T10:47:33.275Z,27.49
2023-05-05T10:48:33.301Z,27.51
2023-05-05T10:49:33.404Z,27.46
2023-05-05T10:50:33.962Z,27.61
2023-05-05T10:51:39.838Z,27.62
2023-05-05T10:52:33.264Z,27.62
2023-05-05T10:53:33.270Z,27.74
2023-05-05T10:54:33.960Z,27.75
2023-05-05T10:55:33.249Z,27.80
2023-05-05T10:56:33.284Z,27.80
2023-05-05T10:57:33.290Z,27.84
2023-05-05T10:58:38.542Z,27.93
2023-05-05T10:59:33.269Z,27.94
2023-05-05T11:00:33.269Z,27.99
2023-05-05T11:01:33.877Z,28.03
2023-05-05T11:02:33.361Z,28.05
2023-05-05T11:03:33.503Z,28.18
2023-05-05T11:04:33.328Z,28.18
2023-05-05T11:05:33.279Z,28.17
2023-05-05T11:06:33.327Z,28.36
2023-05-05T11:07:33.303Z,28.31
2023-05-05T11:08:33.321Z,28.39
2023-05-05T11:09:33.294Z,28.48
2023-05-05T11:10:33.320Z,28.48
2023-05-05T11:11:33.316Z,28.60
2023-05-05T11:12:33.658Z,28.49
2023-05-05T11:13:33.399Z,28.72
2023-05-05T11:14:33.994Z,28.70
2023-05-05T11:15:33.432Z,28.82
2023-05-05T11:16:34.075Z,28.86
2023-05-05T11:17:33.442Z,28.91
2023-05-05T11:18:33.363Z,29.01
2023-05-05T11:19:33.368Z,29.01
2023-05-05T11:20:33.318Z,29.03
2023-05-05T11:21:33.328Z,29.15
2023-05-05T11:22:33.339Z,29.17
2023-05-05T11:23:33.372Z,29.23
2023-05-05T11:24:33.368Z,29.35
2023-05-05T11:25:33.340Z,29.36
2023-05-05T11:26:33.658Z,29.48
2023-05-05T11:27:33.402Z,29.50
2023-05-05T11:28:33.358Z,29.55
2023-05-05T11:29:33.373Z,29.65
2023-05-05T11:30:33.416Z,29.66
2023-05-05T11:31:33.472Z,29.73
2023-05-05T11:32:33.425Z,29.77
2023-05-05T11:33:33.580Z,29.88
2023-05-05T11:34:33.408Z,29.92
2023-05-05T11:35:33.368Z,29.98
2023-05-05T11:36:33.370Z,30.10
2023-05-05T11:37:33.375Z,30.16
2023-05-05T11:38:33.445Z,30.22
2023-05-05T11:39:33.382Z,30.14
2023-05-05T11:40:33.387Z,30.34
2023-05-05T11:41:33.532Z,30.40
2023-05-05T11:42:33.410Z,30.45
2023-05-05T11:43:33.396Z,30.48
2023-05-05T11:44:33.407Z,30.51
2023-05-05T11:45:33.473Z,30.66
2023-05-05T11:46:33.464Z,30.70
2023-05-05T11:47:33.439Z,30.70
2023-05-05T11:48:33.429Z,30.81
2023-05-05T11:49:33.510Z,30.82
2023-05-05T11:50:33.431Z,30.96
2023-05-05T11:51:33.446Z,30.86
2023-05-05T11:52:33.443Z,30.93
2023-05-05T11:53:33.443Z,30.97
2023-05-05T11:54:33.460Z,31.08
2023-05-05T11:55:33.543Z,31.08
2023-05-05T11:56:33.464Z,31.21
2023-05-05T11:57:33.489Z,31.25
2023-05-05T11:58:33.462Z,31.30
2023-05-05T11:59:33.456Z,31.36
2023-05-05T12:00:33.476Z,31.44
2023-05-05T12:01:33.475Z,31.58
2023-05-05T12:02:33.521Z,31.70
2023-05-05T12:03:33.631Z,31.74
2023-05-05T12:04:33.508Z,31.71
2023-05-05T12:05:36.331Z,31.65
2023-05-05T12:06:33.508Z,31.55
2023-05-05T12:07:33.528Z,31.58
2023-05-05T12:08:33.506Z,31.71
2023-05-05T12:09:33.565Z,31.81
2023-05-05T12:10:33.506Z,32.00
2023-05-05T12:11:33.517Z,31.97
2023-05-05T12:12:33.532Z,32.03
2023-05-05T12:13:33.570Z,31.95
2023-05-05T12:14:33.522Z,31.98
2023-05-05T12:15:33.560Z,32.15
2023-05-05T12:16:33.591Z,32.17
2023-05-05T12:17:33.585Z,32.31
2023-05-05T12:18:33.535Z,32.37
2023-05-05T12:19:33.583Z,32.34
2023-05-05T12:20:33.603Z,32.45
2023-05-05T12:21:33.662Z,32.42
2023-05-05T12:22:33.580Z,32.54
2023-05-05T12:23:33.573Z,32.62
2023-05-05T12:24:33.580Z,32.54
2023-05-05T12:25:33.597Z,32.42
2023-05-05T12:26:33.583Z,32.42
2023-05-05T12:27:33.603Z,32.39
2023-05-05T12:28:33.599Z,32.32
2023-05-05T12:29:33.612Z,32.20
2023-05-05T12:30:33.638Z,32.31
2023-05-05T12:31:33.657Z,32.25
2023-05-05T12:32:33.644Z,32.24
2023-05-05T12:33:33.630Z,32.09
2023-05-05T12:34:33.625Z,32.12
2023-05-05T12:35:33.642Z,31.98
2023-05-05T12:36:33.662Z,32.03
2023-05-05T12:37:33.806Z,31.93
2023-05-05T12:38:33.635Z,31.97
2023-05-05T12:39:33.643Z,31.97
2023-05-05T12:40:33.666Z,32.00
2023-05-05T12:41:33.677Z,31.94
2023-05-05T12:42:33.704Z,31.88
2023-05-05T12:43:33.688Z,31.75
2023-05-05T12:44:33.671Z,31.75
2023-05-05T12:45:33.711Z,31.70
2023-05-05T12:46:33.826Z,31.58
2023-05-05T12:47:33.927Z,31.41
2023-05-05T12:50:06.339Z,31.28
2023-05-05T12:51:06.230Z,31.15
2023-05-05T12:52:06.227Z,31.12
2023-05-05T12:53:06.344Z,31.00
2023-05-05T12:54:06.258Z,30.88
2023-05-05T12:55:06.439Z,30.89
2023-05-05T12:56:06.249Z,30.94
2023-05-05T12:57:06.266Z,30.82
2023-05-05T12:58:06.258Z,30.85
2023-05-05T12:59:06.302Z,30.77
2023-05-05T13:00:06.492Z,30.73
2023-05-05T13:01:06.302Z,30.66
2023-05-05T13:02:06.290Z,30.63
2023-05-05T13:03:06.420Z,30.67
2023-05-05T13:04:06.286Z,30.69
2023-05-05T13:05:06.477Z,30.67
2023-05-05T13:06:06.287Z,30.71
2023-05-05T13:07:06.280Z,30.77
2023-05-05T13:08:06.309Z,30.73
2023-05-05T13:09:06.388Z,30.66
2023-05-05T13:10:06.325Z,30.71
2023-05-05T13:11:06.310Z,30.60
2023-05-05T13:12:06.316Z,30.51
2023-05-05T13:13:06.330Z,30.57
2023-05-05T13:14:06.317Z,30.42
2023-05-05T13:15:06.477Z,30.37
2023-05-05T13:16:06.353Z,30.19
2023-05-05T13:17:06.314Z,30.19
2023-05-05T13:18:06.396Z,30.11
2023-05-05T13:19:06.343Z,30.06
2023-05-05T13:20:06.414Z,30.02
2023-05-05T13:21:06.307Z,30.00
2023-05-05T13:22:06.317Z,30.03
2023-05-05T13:23:06.321Z,29.94
2023-05-05T13:24:22.930Z,29.82
2023-05-05T13:25:06.430Z,29.92
2023-05-05T13:26:06.348Z,29.89
2023-05-05T13:27:06.327Z,29.84
2023-05-05T13:28:06.353Z,29.87
2023-05-05T13:29:06.365Z,29.84
2023-05-05T13:30:06.422Z,29.79
2023-05-05T13:31:06.400Z,29.84
2023-05-05T13:32:06.366Z,29.76
2023-05-05T13:33:06.446Z,29.81
2023-05-05T13:34:06.343Z,29.73
2023-05-05T13:35:06.468Z,29.60
2023-05-05T13:36:06.393Z,29.66
2023-05-05T13:37:06.375Z,29.67
2023-05-05T13:38:06.367Z,29.67
2023-05-05T13:39:06.356Z,29.65
2023-05-05T13:40:06.384Z,29.70
2023-05-05T13:41:06.485Z,29.77
2023-05-05T13:42:06.419Z,29.82
2023-05-05T13:43:06.353Z,29.84
2023-05-05T13:44:06.354Z,29.95
2023-05-05T13:45:06.450Z,30.04
2023-05-05T13:46:19.115Z,30.04
2023-05-05T13:47:06.425Z,30.06
2023-05-05T13:48:06.381Z,30.02
2023-05-05T13:49:06.373Z,29.95
2023-05-05T13:50:06.440Z,29.89
2023-05-05T13:51:06.394Z,29.82
2023-05-05T13:52:06.391Z,29.75
2023-05-05T13:53:06.381Z,29.69
2023-05-05T13:54:06.388Z,29.70
2023-05-05T13:55:06.492Z,29.63
2023-05-05T13:56:06.397Z,29.65
2023-05-05T13:57:06.526Z,29.61
2023-05-05T13:58:06.388Z,29.55
2023-05-05T13:59:06.428Z,29.60
2023-05-05T14:00:06.446Z,29.52
2023-05-05T14:01:06.501Z,29.52
2023-05-05T14:02:06.386Z,29.60
2023-05-05T14:03:06.415Z,29.57
2023-05-05T14:04:06.487Z,29.48
2023-05-05T14:05:06.531Z,29.54
2023-05-05T14:06:06.401Z,29.70
2023-05-05T14:07:06.440Z,29.77
2023-05-05T14:08:06.416Z,29.75
2023-05-05T14:09:06.654Z,29.77
2023-05-05T14:10:06.431Z,29.73
2023-05-05T14:11:07.045Z,29.73
2023-05-05T14:12:06.420Z,29.58
2023-05-05T14:13:06.453Z,29.63
2023-05-05T14:14:06.444Z,29.58
2023-05-05T14:15:06.706Z,29.50
2023-05-05T14:16:06.462Z,29.51
2023-05-05T14:17:06.484Z,29.43
2023-05-05T14:18:06.530Z,29.39
2023-05-05T14:19:06.465Z,29.33
2023-05-05T14:20:06.582Z,29.29
2023-05-05T14:21:06.453Z,29.15
2023-05-05T14:22:06.493Z,29.21
2023-05-05T14:23:06.447Z,29.05
2023-05-05T14:24:06.432Z,29.06
2023-05-05T14:25:06.725Z,28.97
2023-05-05T14:26:06.464Z,28.95
2023-05-05T14:27:06.500Z,28.88
2023-05-05T14:28:06.455Z,28.83
2023-05-05T14:29:06.594Z,28.88
2023-05-05T14:30:06.462Z,28.73
2023-05-05T14:31:06.464Z,28.73
2023-05-05T14:32:06.537Z,28.61
2023-05-05T14:33:06.482Z,28.58
2023-05-05T14:34:06.468Z,28.53
2023-05-05T14:35:06.643Z,28.45
2023-05-05T14:36:06.462Z,28.39
2023-05-05T14:37:06.467Z,28.35
2023-05-05T14:38:06.493Z,28.28
2023-05-05T14:39:06.487Z,28.16
2023-05-05T14:40:06.584Z,28.18
2023-05-05T14:41:06.500Z,28.17
2023-05-05T14:42:06.477Z,28.05
2023-05-05T14:43:06.458Z,27.96
2023-05-05T14:44:06.467Z,27.94
2023-05-05T14:45:06.991Z,27.93
2023-05-05T14:46:06.863Z,27.81
2023-05-05T14:47:06.476Z,27.81
2023-05-05T14:48:06.465Z,27.71
2023-05-05T14:49:06.460Z,27.72
2023-05-05T14:50:06.492Z,27.53
2023-05-05T14:51:06.468Z,27.59
2023-05-05T14:52:06.494Z,27.52
2023-05-05T14:53:06.501Z,27.45
2023-05-05T14:54:14.275Z,27.51
2023-05-05T14:55:06.662Z,27.42
2023-05-05T14:56:06.460Z,27.27
2023-05-05T14:57:06.466Z,27.37
2023-05-05T14:58:06.465Z,27.24
2023-05-05T14:59:06.487Z,27.26
2023-05-05T15:00:06.481Z,27.21
2023-05-05T15:01:06.581Z,27.18
2023-05-05T15:02:06.480Z,27.01
2023-05-05T15:03:06.502Z,27.04
2023-05-05T15:04:06.473Z,26.91
2023-05-05T15:05:06.584Z,26.86
2023-05-05T15:06:06.486Z,26.90
2023-05-05T15:07:06.494Z,26.82
2023-05-05T15:08:06.475Z,26.82
2023-05-05T15:09:06.531Z,26.74
2023-05-05T15:10:06.496Z,26.68
2023-05-05T15:11:06.465Z,26.59
2023-05-05T15:12:06.470Z,26.61
2023-05-05T15:13:06.489Z,26.53
2023-05-05T15:14:06.473Z,26.47
2023-05-05T15:15:06.574Z,26.45
2023-05-05T15:16:06.495Z,26.47
2023-05-05T15:17:06.573Z,26.41
2023-05-05T15:18:06.503Z,26.38
2023-05-05T15:19:06.496Z,26.35
2023-05-05T15:20:06.487Z,26.30
2023-05-05T15:21:06.465Z,26.30
2023-05-05T15:22:06.483Z,26.32
2023-05-05T15:23:06.477Z,26.26
2023-05-05T15:24:06.495Z,26.09
2023-05-05T15:25:06.658Z,26.09
2023-05-05T15:26:06.489Z,26.15
2023-05-05T15:27:06.464Z,26.09
2023-05-05T15:28:06.462Z,26.07
2023-05-05T15:29:06.481Z,26.01
2023-05-05T15:30:06.492Z,25.97
2023-05-05T15:31:06.458Z,25.93
2023-05-05T15:32:06.532Z,26.00
2023-05-05T15:33:06.603Z,25.88
2023-05-05T15:34:06.459Z,25.89
2023-05-05T15:35:06.601Z,25.91
2023-05-05T15:36:06.491Z,25.86
2023-05-05T15:37:06.482Z,25.81
2023-05-05T15:38:06.464Z,25.78
2023-05-05T15:39:06.482Z,25.78
2023-05-05T15:40:06.504Z,25.81
2023-05-05T15:41:06.463Z,25.74
2023-05-05T15:42:06.448Z,25.79
2023-05-05T15:43:06.463Z,25.69
2023-05-05T15:44:06.456Z,25.62
2023-05-05T15:45:06.681Z,25.66
2023-05-05T15:46:06.590Z,25.66
2023-05-05T15:47:06.487Z,25.60
2023-05-05T15:48:06.536Z,25.49
2023-05-05T15:49:06.533Z,25.59
2023-05-05T15:50:06.543Z,25.45
2023-05-05T15:51:06.466Z,25.52
2023-05-05T15:52:06.435Z,25.41
2023-05-05T15:53:06.443Z,25.48
2023-05-05T15:54:06.429Z,25.42
2023-05-05T15:55:06.588Z,25.34
2023-05-05T15:56:06.456Z,25.41
2023-05-05T15:57:06.431Z,25.33
2023-05-05T15:58:06.437Z,25.30
2023-05-05T15:59:06.433Z,25.27
2023-05-05T16:00:06.432Z,25.32
2023-05-05T16:01:06.517Z,25.32
2023-05-05T16:12:44.608Z,25.04
2023-05-05T16:13:44.466Z,24.94
2023-05-05T16:14:44.453Z,24.87
2023-05-05T16:15:44.463Z,24.77
2023-05-05T16:16:44.458Z,24.78
2023-05-05T16:17:44.478Z,24.75
2023-05-05T16:18:44.413Z,24.69
2023-05-05T16:19:44.436Z,24.78
2023-05-05T16:20:44.443Z,24.77
2023-05-05T16:21:44.440Z,24.66
2023-05-05T16:22:44.406Z,24.63
2023-05-05T16:23:44.397Z,24.59
2023-05-05T16:24:44.502Z,24.61
2023-05-05T16:25:44.441Z,24.61
2023-05-05T16:26:44.421Z,24.58
2023-05-05T16:27:44.403Z,24.51
2023-05-05T16:28:44.570Z,24.48
2023-05-05T16:29:44.389Z,24.52
2023-05-05T16:30:44.393Z,24.48
2023-05-05T16:31:44.491Z,24.48
2023-05-05T16:32:44.435Z,24.40
2023-05-05T16:33:44.410Z,24.40
2023-05-05T16:34:44.384Z,24.32
2023-05-05T16:35:44.379Z,24.36
2023-05-05T16:36:44.624Z,24.32
2023-05-05T16:37:44.390Z,24.30
2023-05-05T16:38:44.372Z,24.22
2023-05-05T16:39:44.428Z,24.26
2023-05-05T16:40:44.364Z,24.22
2023-05-05T16:41:44.371Z,24.29
2023-05-05T16:42:44.704Z,24.26
2023-05-05T16:43:44.381Z,24.17
2023-05-05T16:44:44.482Z,24.19
2023-05-05T16:45:44.359Z,24.22
2023-05-05T16:46:44.560Z,24.11
2023-05-05T16:47:44.385Z,24.21
2023-05-05T16:48:44.410Z,24.24
2023-05-05T16:49:44.359Z,24.21
2023-05-05T16:50:44.373Z,24.17
2023-05-05T16:51:44.486Z,24.15
2023-05-05T16:52:44.368Z,24.12
2023-05-05T16:53:44.358Z,24.08
2023-05-05T16:54:44.360Z,24.04
2023-05-05T16:55:44.372Z,24.08
2023-05-05T16:56:44.381Z,24.09
2023-05-05T16:57:44.349Z,23.97
2023-05-05T16:58:44.330Z,24.00
2023-05-05T16:59:44.342Z,23.97
2023-05-05T17:00:44.355Z,23.89
2023-05-05T17:01:44.347Z,24.00
2023-05-05T17:02:44.377Z,23.90
2023-05-05T17:03:44.325Z,23.92
2023-05-05T17:04:44.326Z,23.96
2023-05-05T17:05:44.427Z,23.92
2023-05-05T17:06:44.320Z,23.96
2023-05-05T17:07:44.323Z,23.87
2023-05-05T17:08:44.316Z,23.85
2023-05-05T17:09:44.320Z,23.84
2023-05-05T17:10:44.353Z,23.82
2023-05-05T17:11:44.311Z,23.79
2023-05-05T17:12:44.400Z,23.79
2023-05-05T17:13:44.298Z,23.74
2023-05-05T17:14:44.296Z,23.78
2023-05-05T17:15:44.335Z,23.74
2023-05-05T17:16:44.634Z,23.67
2023-05-05T17:17:44.340Z,23.64
2023-05-05T17:18:44.294Z,23.67
2023-05-05T17:19:44.297Z,23.62
2023-05-05T17:20:44.307Z,23.67
2023-05-05T17:21:44.291Z,23.71
2023-05-05T17:22:44.290Z,23.66